Lamoni, Iowa
Current Conditions -  °F | °C
As of 8:04 AM on Friday 19 Dec 2014 (Local Time) from KLWD Reporting Station
Haze Haze  
Wind Chill: 28°   Ceiling: 3900
Heat Index: 28°   Visibility: 4mi
Dew Point: 26°   Wind: 3mph
Humidity: 92%   Direction: 120°ESE
Pressure: 30.25"   Gusts: NA
Location:  40.62°N, 93.93°W
Report Text: KLWD 191404Z AUTO 12003KT 4SM BR FEW007 OVC039 M02/M03 A3025 RMK AO2 T10221033
Loading
Personal Weather Stations






























Interactive Weather Map New forecast layout! Learn more

10-Day Weather Forecast

Advertisements
Track Severe Weather on mobile